Terminal Aerodrome Forecast
Issued by NWS Sioux Falls, SD

Home | Current Version | Previous Version | Graphics & Text | Print | Product List | Glossary Off
Versions: 1 2 3 4 5 6 7 8 9 10 11 12 13 14

117
FTUS43 KFSD 180540
TAFHON
TAF
KHON 180540Z 1806/1906 33008KT P6SM OVC060
     FM181100 32007KT P6SM SCT100
     FM181400 32011G17KT P6SM BKN035
     FM181700 33019G26KT P6SM SCT150
     FM190000 32008KT P6SM FEW200=

USA.gov is the U.S. government's official web portal to all federal, state and local government web resources and services.